Newcastle-under-Lyme, United Kingdom
Current Conditions -  °F | °C
As of 9:50 AM on Friday 28 Nov 2014 (Local Time) from EGOS Reporting Station
Haze Haze  
Wind Chill: 10°   Ceiling: 2200
Heat Index: 10°   Visibility: 2.8mi
Dew Point:   Wind: 7mph
Humidity: 94%   Direction: 70°ENE
Pressure: 29.65"   Gusts: NA
Location:  52.99°N, 2.33°W
Report Text: EGOS 280950Z 07006KT 4500 HZ SCT010 BKN022 10/09 Q1004 GRN BECMG 5000 HZ FEW010 BKN022 WHT
Loading
Personal Weather Stations






























Interactive Weather Map New forecast layout! Learn more

10-Day Weather Forecast

Advertisements
Track Severe Weather on mobile